createdAt,value
2023-12-30T00:02:06.650Z,99802.09
2023-12-30T00:04:36.398Z,99804.72
2023-12-30T00:07:08.866Z,99802.16
2023-12-30T00:09:39.034Z,99806.53
2023-12-30T00:12:09.387Z,99797.88
2023-12-30T00:14:39.117Z,99798.84
2023-12-30T00:17:08.884Z,99806.88
2023-12-30T00:19:43.818Z,99806.00
2023-12-30T00:22:16.272Z,99816.66
2023-12-30T00:24:46.594Z,99823.72
2023-12-30T00:27:16.384Z,99828.00
2023-12-30T00:29:46.154Z,99827.88
2023-12-30T00:32:16.341Z,99825.25
2023-12-30T00:34:46.276Z,99827.81
2023-12-30T00:37:20.686Z,99833.03
2023-12-30T00:39:50.911Z,99840.00
2023-12-30T00:42:20.696Z,99832.09
2023-12-30T00:44:50.452Z,99836.34
2023-12-30T00:47:20.911Z,99845.84
2023-12-30T00:49:50.706Z,99846.53
2023-12-30T00:52:23.414Z,99842.84
2023-12-30T00:54:53.252Z,99850.63
2023-12-30T00:57:23.058Z,99847.06
2023-12-30T00:59:55.806Z,99856.69
2023-12-30T01:02:25.580Z,99856.56
2023-12-30T01:04:55.722Z,99857.19
2023-12-30T01:07:28.254Z,99854.13
2023-12-30T01:09:58.110Z,99858.16
2023-12-30T01:12:27.921Z,99864.88
2023-12-30T01:14:57.668Z,99865.63
2023-12-30T01:17:28.065Z,99851.63
2023-12-30T01:19:57.956Z,99859.88
2023-12-30T01:22:30.314Z,99860.25
2023-12-30T01:25:00.251Z,99862.19
2023-12-30T01:27:30.197Z,99876.41
2023-12-30T01:29:59.952Z,99873.09
2023-12-30T01:32:29.749Z,99874.09
2023-12-30T01:35:00.855Z,99873.22
2023-12-30T01:37:33.579Z,99896.81
2023-12-30T01:40:03.948Z,99880.97
2023-12-30T01:42:33.696Z,99888.00
2023-12-30T01:45:03.731Z,99889.78
2023-12-30T01:47:34.075Z,99900.31
2023-12-30T01:50:04.007Z,99910.88
2023-12-30T01:52:37.603Z,99909.91
2023-12-30T01:55:08.256Z,99925.50
2023-12-30T01:57:38.885Z,99925.44
2023-12-30T02:00:10.278Z,99929.75
2023-12-30T02:02:43.936Z,99940.97
2023-12-30T02:05:14.832Z,99941.66
2023-12-30T02:07:51.152Z,99944.84
2023-12-30T02:10:20.978Z,99943.81
2023-12-30T02:12:50.773Z,99949.72
2023-12-30T02:15:23.012Z,99945.19
2023-12-30T02:17:56.404Z,99954.78
2023-12-30T02:20:26.403Z,99950.41
2023-12-30T02:22:58.862Z,99956.63
2023-12-30T02:25:28.731Z,99954.09
2023-12-30T02:27:58.568Z,99957.09
2023-12-30T02:30:28.375Z,99954.94
2023-12-30T02:33:00.350Z,99956.28
2023-12-30T02:35:31.095Z,99957.53
2023-12-30T02:38:03.511Z,99958.78
2023-12-30T02:40:33.363Z,99959.88
2023-12-30T02:43:03.338Z,99967.91
2023-12-30T02:45:33.718Z,99965.34
2023-12-30T02:48:04.198Z,99963.69
2023-12-30T02:50:34.004Z,99962.97
2023-12-30T02:53:06.704Z,99973.53
2023-12-30T02:55:37.216Z,99966.38
2023-12-30T02:58:07.307Z,99969.75
2023-12-30T03:00:37.154Z,99962.78
2023-12-30T03:03:07.676Z,99966.50
2023-12-30T03:05:37.517Z,99972.03
2023-12-30T03:08:10.219Z,99970.44
2023-12-30T03:10:40.028Z,99972.94
2023-12-30T03:13:09.847Z,99968.31
2023-12-30T03:15:39.652Z,99968.03
2023-12-30T03:18:09.714Z,99965.91
2023-12-30T03:20:39.524Z,99965.63
2023-12-30T03:23:11.887Z,99968.84
2023-12-30T03:25:41.617Z,99968.59
2023-12-30T03:28:11.453Z,99975.47
2023-12-30T03:30:41.308Z,99964.81
2023-12-30T03:33:11.565Z,99971.78
2023-12-30T03:35:41.457Z,99973.50
2023-12-30T03:38:13.999Z,99983.09
2023-12-30T03:40:44.006Z,99978.56
2023-12-30T03:43:13.864Z,99967.06
2023-12-30T03:45:44.069Z,99974.97
2023-12-30T03:48:15.017Z,99976.00
2023-12-30T03:50:45.026Z,99973.50
2023-12-30T03:53:17.863Z,99983.28
2023-12-30T03:55:48.272Z,99980.72
2023-12-30T03:58:18.181Z,99981.69
2023-12-30T04:00:48.078Z,99988.81
2023-12-30T04:03:15.983Z,99986.25
2023-12-30T04:05:46.186Z,99992.38
2023-12-30T04:08:18.646Z,99990.72
2023-12-30T04:10:48.429Z,99992.44
2023-12-30T04:13:18.207Z,99984.47
2023-12-30T04:15:48.074Z,99995.06
2023-12-30T04:18:18.111Z,99990.78
2023-12-30T04:20:48.077Z,99994.50
2023-12-30T04:23:20.459Z,99995.66
2023-12-30T04:25:50.468Z,100002.97
2023-12-30T04:28:20.440Z,100004.28
2023-12-30T04:30:50.706Z,100000.16
2023-12-30T04:33:20.689Z,99994.38
2023-12-30T04:35:50.717Z,100002.59
2023-12-30T04:38:23.164Z,99995.00
2023-12-30T04:40:53.318Z,100003.13
2023-12-30T04:43:23.115Z,100003.22
2023-12-30T04:45:53.444Z,100004.09
2023-12-30T04:48:23.346Z,100007.31
2023-12-30T04:50:53.522Z,100002.59
2023-12-30T04:53:26.662Z,100006.56
2023-12-30T04:55:56.396Z,100004.47
2023-12-30T04:58:26.193Z,100003.19
2023-12-30T05:00:56.086Z,100003.81
2023-12-30T05:03:25.920Z,100000.03
2023-12-30T05:05:57.124Z,100014.72
2023-12-30T05:08:29.589Z,100014.66
2023-12-30T05:10:59.607Z,100026.19
2023-12-30T05:13:29.657Z,100021.09
2023-12-30T05:15:59.463Z,100032.53
2023-12-30T05:18:29.318Z,100027.38
2023-12-30T05:20:59.348Z,100033.56
2023-12-30T05:23:31.724Z,100028.25
2023-12-30T05:26:01.531Z,100027.31
2023-12-30T05:28:31.552Z,100032.66
2023-12-30T05:31:01.479Z,100034.41
2023-12-30T05:33:31.388Z,100037.00
2023-12-30T05:36:01.233Z,100035.97
2023-12-30T05:38:33.837Z,100044.56
2023-12-30T05:41:03.759Z,100037.34
2023-12-30T05:43:33.617Z,100037.22
2023-12-30T05:46:03.459Z,100031.84
2023-12-30T05:48:33.323Z,100040.56
2023-12-30T05:51:03.292Z,100037.88
2023-12-30T05:53:36.693Z,100044.00
2023-12-30T05:56:06.961Z,100044.03
2023-12-30T05:58:36.913Z,100046.81
2023-12-30T06:01:07.148Z,100054.78
2023-12-30T06:03:36.973Z,100050.41
2023-12-30T06:06:07.027Z,100051.31
2023-12-30T06:08:39.440Z,100047.91
2023-12-30T06:11:09.300Z,100063.72
2023-12-30T06:13:40.555Z,100068.00
2023-12-30T06:16:12.072Z,100060.03
2023-12-30T06:18:42.021Z,100069.63
2023-12-30T06:21:12.055Z,100077.47
2023-12-30T06:23:44.708Z,100080.09
2023-12-30T06:26:14.469Z,100075.72
2023-12-30T06:28:44.394Z,100072.31
2023-12-30T06:31:14.313Z,100069.69
2023-12-30T06:33:44.402Z,100073.38
2023-12-30T06:36:22.731Z,100077.16
2023-12-30T06:38:55.384Z,100080.94
2023-12-30T06:41:25.368Z,100088.00
2023-12-30T06:43:55.653Z,100083.63
2023-12-30T06:46:25.450Z,100094.28
2023-12-30T06:48:55.463Z,100098.13
2023-12-30T06:51:25.312Z,100103.81
2023-12-30T06:53:57.733Z,100104.25
2023-12-30T06:56:27.829Z,100115.13
2023-12-30T06:58:57.768Z,100117.09
2023-12-30T07:01:28.363Z,100118.28
2023-12-30T07:03:58.206Z,100106.19
2023-12-30T07:06:27.960Z,100107.25
2023-12-30T07:09:00.295Z,100116.22
2023-12-30T07:11:30.624Z,100115.44
2023-12-30T07:14:00.368Z,100126.03
2023-12-30T07:16:30.164Z,100123.34
2023-12-30T07:19:00.021Z,100130.31
2023-12-30T07:21:30.044Z,100133.84
2023-12-30T07:24:02.393Z,100126.84
2023-12-30T07:26:32.139Z,100131.06
2023-12-30T07:29:02.443Z,100130.88
2023-12-30T07:31:32.226Z,100135.13
2023-12-30T07:34:02.500Z,100137.66
2023-12-30T07:36:32.891Z,100124.34
2023-12-30T07:39:05.624Z,100136.38
2023-12-30T07:41:35.972Z,100136.13
2023-12-30T07:44:07.091Z,100135.91
2023-12-30T07:46:37.164Z,100133.03
2023-12-30T07:49:07.449Z,100135.53
2023-12-30T07:51:39.035Z,100145.75
2023-12-30T07:54:14.244Z,100149.84
2023-12-30T07:56:44.366Z,100154.00
2023-12-30T07:59:15.314Z,100160.75
2023-12-30T08:01:46.978Z,100160.50
2023-12-30T08:04:17.866Z,100151.53
2023-12-30T08:06:48.216Z,100161.03
2023-12-30T08:09:21.062Z,100165.34
2023-12-30T08:11:59.205Z,100171.47
2023-12-30T08:14:32.616Z,100167.13
2023-12-30T08:17:02.678Z,100167.19
2023-12-30T08:19:32.419Z,100168.88
2023-12-30T08:22:03.562Z,100175.94
2023-12-30T08:24:35.894Z,100170.72
2023-12-30T08:27:05.678Z,100176.91
2023-12-30T08:29:35.657Z,100181.38
2023-12-30T08:32:08.093Z,100176.00
2023-12-30T08:34:38.007Z,100176.72
2023-12-30T08:37:09.970Z,100183.41
2023-12-30T08:39:42.923Z,100183.03
2023-12-30T08:42:12.691Z,100188.78
2023-12-30T08:44:45.293Z,100186.72
2023-12-30T08:47:16.764Z,100181.25
2023-12-30T08:49:46.684Z,100188.91
2023-12-30T08:52:16.626Z,100195.78
2023-12-30T08:54:48.969Z,100197.41
2023-12-30T08:57:18.781Z,100190.34
2023-12-30T08:59:49.560Z,100199.00
2023-12-30T09:02:19.429Z,100203.38
2023-12-30T09:04:49.203Z,100198.91
2023-12-30T09:07:19.093Z,100204.97
2023-12-30T09:09:51.535Z,100214.63
2023-12-30T09:12:21.424Z,100213.72
2023-12-30T09:14:51.241Z,100216.22
2023-12-30T09:17:21.279Z,100221.38
2023-12-30T09:19:51.088Z,100214.22
2023-12-30T09:22:20.881Z,100224.66
2023-12-30T09:24:53.239Z,100220.16
2023-12-30T09:27:22.980Z,100228.88
2023-12-30T09:29:52.737Z,100229.69
2023-12-30T09:32:23.877Z,100225.19
2023-12-30T09:34:54.820Z,100225.06
2023-12-30T09:37:24.671Z,100231.09
2023-12-30T09:39:57.211Z,100234.44
2023-12-30T09:42:27.194Z,100228.16
2023-12-30T09:44:57.765Z,100224.50
2023-12-30T09:47:28.419Z,100240.13
2023-12-30T09:49:58.692Z,100234.69
2023-12-30T09:52:28.501Z,100232.72
2023-12-30T09:55:00.879Z,100224.63
2023-12-30T09:57:30.933Z,100226.16
2023-12-30T10:00:01.150Z,100229.53
2023-12-30T10:02:31.313Z,100227.63
2023-12-30T10:05:01.896Z,100224.75
2023-12-30T10:07:33.127Z,100226.22
2023-12-30T10:10:06.043Z,100223.13
2023-12-30T10:12:35.842Z,100224.59
2023-12-30T10:15:05.536Z,100229.56
2023-12-30T10:17:35.544Z,100223.94
2023-12-30T10:20:05.972Z,100237.72
2023-12-30T10:22:36.705Z,100229.50
2023-12-30T10:25:10.682Z,100216.94
2023-12-30T10:27:42.763Z,100227.47
2023-12-30T10:30:16.164Z,100225.47
2023-12-30T10:32:46.317Z,100222.63
2023-12-30T10:35:16.306Z,100222.41
2023-12-30T10:37:46.476Z,100208.78
2023-12-30T10:40:19.636Z,100213.69
2023-12-30T10:42:49.349Z,100218.72
2023-12-30T10:45:19.709Z,100206.19
2023-12-30T10:47:49.667Z,100210.56
2023-12-30T10:50:19.877Z,100213.13
2023-12-30T10:53:00.430Z,100207.59
2023-12-30T10:55:37.863Z,100208.25
2023-12-30T10:58:10.820Z,100197.41
2023-12-30T11:00:41.779Z,100202.50
2023-12-30T11:03:11.546Z,100206.09
2023-12-30T11:05:47.337Z,100207.84
2023-12-30T11:08:19.138Z,100198.19
2023-12-30T11:10:54.297Z,100197.41
2023-12-30T11:13:24.215Z,100198.41
2023-12-30T11:15:54.217Z,100201.91
2023-12-30T11:18:49.345Z,100192.88
2023-12-30T11:21:37.314Z,100199.00
2023-12-30T11:24:09.094Z,100199.72
2023-12-30T11:26:46.061Z,100202.16
2023-12-30T11:29:18.366Z,100196.88
2023-12-30T11:31:50.732Z,100197.03
2023-12-30T11:34:20.828Z,100196.28
2023-12-30T11:36:51.445Z,100199.72
2023-12-30T11:39:27.744Z,100197.88
2023-12-30T11:42:00.749Z,100195.94
2023-12-30T11:44:31.575Z,100192.16
2023-12-30T11:47:02.244Z,100195.44
2023-12-30T11:49:32.825Z,100190.00
2023-12-30T11:52:06.236Z,100184.69
2023-12-30T11:54:37.183Z,100183.78
2023-12-30T11:57:11.166Z,100177.69
2023-12-30T11:59:45.376Z,100172.31
2023-12-30T12:02:16.002Z,100163.19
2023-12-30T12:04:46.427Z,100158.53
2023-12-30T12:07:16.216Z,100152.97
2023-12-30T12:09:46.429Z,100148.16
2023-12-30T12:12:24.932Z,100143.41
2023-12-30T12:14:55.756Z,100144.91
2023-12-30T12:17:25.536Z,100138.50
2023-12-30T12:19:55.310Z,100132.19
2023-12-30T12:22:25.121Z,100135.78
2023-12-30T12:24:56.510Z,100120.09
2023-12-30T12:27:28.935Z,100116.75
2023-12-30T12:29:58.950Z,100116.19
2023-12-30T12:32:31.117Z,100122.78
2023-12-30T12:35:02.091Z,100118.75
2023-12-30T12:37:32.775Z,100117.25
2023-12-30T12:40:00.174Z,100117.69
2023-12-30T12:42:32.651Z,100109.81
2023-12-30T12:45:02.398Z,100110.63
2023-12-30T12:47:32.189Z,100115.84
2023-12-30T12:50:02.280Z,100115.84
2023-12-30T12:52:32.277Z,100116.69
2023-12-30T12:55:02.131Z,100107.09
2023-12-30T12:57:34.947Z,100115.13
2023-12-30T13:00:08.491Z,100111.63
2023-12-30T13:02:38.632Z,100108.09
2023-12-30T13:05:11.091Z,100103.69
2023-12-30T13:07:43.460Z,100103.75
2023-12-30T13:10:35.414Z,100101.13
2023-12-30T13:13:08.755Z,100092.53
2023-12-30T13:15:40.040Z,100090.16
2023-12-30T13:18:14.685Z,100092.19
2023-12-30T13:20:46.592Z,100093.25
2023-12-30T13:23:17.502Z,100079.38
2023-12-30T13:25:48.603Z,100080.53
2023-12-30T13:28:21.218Z,100084.25
2023-12-30T13:30:52.235Z,100079.00
2023-12-30T13:33:22.937Z,100076.41
2023-12-30T13:35:53.696Z,100080.88
2023-12-30T13:38:25.088Z,100072.94
2023-12-30T13:40:59.877Z,100071.13
2023-12-30T13:43:32.206Z,100072.09
2023-12-30T13:46:23.241Z,100083.75
2023-12-30T13:49:20.526Z,100069.88
2023-12-30T13:51:50.283Z,100060.34
2023-12-30T13:54:22.028Z,100070.06
2023-12-30T13:57:02.429Z,100069.38
2023-12-30T13:59:34.771Z,100065.16
2023-12-30T14:02:04.782Z,100064.41
2023-12-30T14:04:35.268Z,100053.78
2023-12-30T14:07:10.558Z,100064.22
2023-12-30T14:09:50.602Z,100057.22
2023-12-30T14:12:21.731Z,100055.66
2023-12-30T14:14:59.650Z,100056.78
2023-12-30T14:17:32.694Z,100049.19
2023-12-30T14:20:05.639Z,100041.69
2023-12-30T14:22:36.060Z,100042.06
2023-12-30T14:25:06.599Z,100046.75
2023-12-30T14:27:37.200Z,100048.88
2023-12-30T14:30:13.337Z,100056.31
2023-12-30T14:32:45.817Z,100050.50
2023-12-30T14:35:16.862Z,100045.53
2023-12-30T14:37:46.619Z,100045.88
2023-12-30T14:40:17.009Z,100040.88
2023-12-30T14:42:48.461Z,100041.91
2023-12-30T14:45:22.192Z,100043.56
2023-12-30T14:47:52.343Z,100039.91
2023-12-30T14:50:22.416Z,100038.00
2023-12-30T14:52:52.256Z,100029.09
2023-12-30T14:55:19.688Z,100036.09
2023-12-30T14:57:50.147Z,100035.16
2023-12-30T15:00:25.496Z,100028.94
2023-12-30T15:02:56.258Z,100022.81
2023-12-30T15:05:26.384Z,100027.22
2023-12-30T15:07:57.845Z,100023.66
2023-12-30T15:10:28.138Z,100016.53
2023-12-30T15:12:57.914Z,100012.94
2023-12-30T15:15:30.197Z,100007.56
2023-12-30T15:18:00.326Z,100008.25
2023-12-30T15:20:30.322Z,100011.63
2023-12-30T15:23:00.129Z,100003.69
2023-12-30T15:25:29.905Z,100002.72
2023-12-30T15:27:59.834Z,100004.38
2023-12-30T15:30:32.199Z,100001.72
2023-12-30T15:33:02.620Z,99998.16
2023-12-30T15:35:32.898Z,100002.56
2023-12-30T15:38:02.730Z,99992.88
2023-12-30T15:40:34.244Z,99997.28
2023-12-30T15:43:08.159Z,99987.59
2023-12-30T15:45:42.452Z,99986.63
2023-12-30T15:48:12.421Z,99978.63
2023-12-30T15:50:42.257Z,99982.06
2023-12-30T15:53:12.232Z,99980.28
2023-12-30T15:55:43.328Z,99982.00
2023-12-30T15:58:14.542Z,99982.81
2023-12-30T16:00:46.907Z,99977.53
2023-12-30T16:03:17.742Z,99976.63
2023-12-30T16:05:48.813Z,99979.13
2023-12-30T16:08:19.296Z,99973.00
2023-12-30T16:10:50.192Z,99968.63
2023-12-30T16:13:20.376Z,99971.44
2023-12-30T16:15:54.177Z,99965.56
2023-12-30T16:18:26.235Z,99971.25
2023-12-30T16:20:57.447Z,99969.09
2023-12-30T16:23:27.535Z,99963.13
2023-12-30T16:25:58.250Z,99963.97
2023-12-30T16:28:28.435Z,99966.59
2023-12-30T16:31:01.370Z,99970.06
2023-12-30T16:33:31.624Z,99969.38
2023-12-30T16:36:01.976Z,99969.66
2023-12-30T16:38:31.726Z,99969.09
2023-12-30T16:41:01.730Z,99960.44
2023-12-30T16:43:35.398Z,99970.34
2023-12-30T16:46:08.280Z,99969.03
2023-12-30T16:48:38.957Z,99964.28
2023-12-30T16:51:09.000Z,99966.50
2023-12-30T16:53:39.179Z,99973.00
2023-12-30T16:56:09.442Z,99965.41
2023-12-30T16:58:40.045Z,99962.22
2023-12-30T17:01:12.487Z,99966.03
2023-12-30T17:03:42.254Z,99961.00
2023-12-30T17:06:12.348Z,99964.97
2023-12-30T17:08:42.174Z,99961.91
2023-12-30T17:11:12.046Z,99969.28
2023-12-30T17:13:46.775Z,99969.56
2023-12-30T17:16:25.920Z,99962.75
2023-12-30T17:18:56.169Z,99973.50
2023-12-30T17:21:25.887Z,99971.00
2023-12-30T17:23:55.614Z,99968.38
2023-12-30T17:26:25.379Z,99977.06
2023-12-30T17:28:55.419Z,99967.19
2023-12-30T17:31:27.869Z,99975.78
2023-12-30T17:33:58.356Z,99972.91
2023-12-30T17:36:28.123Z,99970.94
2023-12-30T17:38:58.093Z,99969.06
2023-12-30T17:41:28.078Z,99974.16
2023-12-30T17:43:58.762Z,99979.25
2023-12-30T17:46:32.221Z,99974.69
2023-12-30T17:49:02.579Z,99972.88
2023-12-30T17:51:32.615Z,99973.78
2023-12-30T17:54:02.658Z,99966.06
2023-12-30T17:56:32.760Z,99965.56
2023-12-30T17:59:02.540Z,99968.50
2023-12-30T18:01:35.977Z,99960.97
2023-12-30T18:04:05.792Z,99955.88
2023-12-30T18:06:38.080Z,99952.38
2023-12-30T18:09:11.239Z,99953.19
2023-12-30T18:11:41.709Z,99951.22
2023-12-30T18:14:12.879Z,99941.41
2023-12-30T18:16:45.405Z,99930.69
2023-12-30T18:19:15.839Z,99928.84
2023-12-30T18:21:46.771Z,99923.50
2023-12-30T18:24:16.850Z,99919.94
2023-12-30T18:26:51.364Z,99912.94
2023-12-30T18:29:21.158Z,99913.06
2023-12-30T18:31:53.636Z,99910.56
2023-12-30T18:34:23.568Z,99908.91
2023-12-30T18:36:53.509Z,99913.44
2023-12-30T18:39:23.380Z,99913.56
2023-12-30T18:41:53.173Z,99911.13
2023-12-30T18:44:23.058Z,99912.22
2023-12-30T18:46:55.759Z,99915.03
2023-12-30T18:49:25.624Z,99910.63
2023-12-30T18:51:55.666Z,99903.53
2023-12-30T18:54:25.669Z,99906.16
2023-12-30T18:56:55.936Z,99914.06
2023-12-30T18:59:25.822Z,99906.94
2023-12-30T19:01:58.497Z,99915.72
2023-12-30T19:04:28.400Z,99903.38
2023-12-30T19:06:58.170Z,99895.59
2023-12-30T19:09:27.947Z,99894.88
2023-12-30T19:11:57.689Z,99895.13
2023-12-30T19:14:27.480Z,99882.25
2023-12-30T19:16:59.902Z,99882.59
2023-12-30T19:19:29.719Z,99872.47
2023-12-30T19:22:00.102Z,99868.41
2023-12-30T19:24:29.915Z,99872.22
2023-12-30T19:26:59.672Z,99870.59
2023-12-30T19:29:29.425Z,99868.19
2023-12-30T19:32:02.353Z,99871.97
2023-12-30T19:34:32.721Z,99882.72
2023-12-30T19:37:03.197Z,99874.16
2023-12-30T19:39:33.290Z,99872.56
2023-12-30T19:42:03.614Z,99870.81
2023-12-30T19:44:33.692Z,99864.75
2023-12-30T19:47:06.432Z,99862.13
2023-12-30T19:49:36.477Z,99861.31
2023-12-30T19:52:06.867Z,99861.31
2023-12-30T19:54:37.292Z,99840.16
2023-12-30T19:57:07.318Z,99840.91
2023-12-30T19:59:41.114Z,99841.41
2023-12-30T20:02:13.579Z,99848.09
2023-12-30T20:04:43.820Z,99838.88
2023-12-30T20:07:13.744Z,99841.97
2023-12-30T20:09:45.786Z,99832.78
2023-12-30T20:12:17.757Z,99837.81
2023-12-30T20:14:47.695Z,99833.28
2023-12-30T20:17:20.279Z,99820.19
2023-12-30T20:19:50.476Z,99824.63
2023-12-30T20:22:21.206Z,99825.56
2023-12-30T20:24:51.023Z,99825.44
2023-12-30T20:27:20.794Z,99832.31
2023-12-30T20:29:50.918Z,99827.59
2023-12-30T20:32:23.430Z,99822.94
2023-12-30T20:34:54.207Z,99824.44
2023-12-30T20:37:24.697Z,99819.94
2023-12-30T20:39:54.512Z,99818.97
2023-12-30T20:42:27.663Z,99805.88
2023-12-30T20:44:57.473Z,99806.69
2023-12-30T20:47:29.880Z,99810.03
2023-12-30T20:49:59.756Z,99798.38
2023-12-30T20:52:29.635Z,99803.47
2023-12-30T20:55:01.190Z,99800.56
2023-12-30T20:57:31.107Z,99795.94
2023-12-30T21:00:00.917Z,99793.97
2023-12-30T21:02:33.271Z,99790.28
2023-12-30T21:05:03.035Z,99783.03
2023-12-30T21:07:32.828Z,99775.91
2023-12-30T21:10:03.240Z,99777.50
2023-12-30T21:12:33.004Z,99778.28
2023-12-30T21:15:02.799Z,99780.72
2023-12-30T21:17:35.160Z,99778.88
2023-12-30T21:20:06.311Z,99764.63
2023-12-30T21:22:36.147Z,99773.31
2023-12-30T21:25:15.868Z,99764.63
2023-12-30T21:27:52.942Z,99763.97
2023-12-30T21:30:22.765Z,99759.69
2023-12-30T21:32:56.019Z,99756.25
2023-12-30T21:35:25.894Z,99756.25
2023-12-30T21:37:56.016Z,99753.56
2023-12-30T21:40:26.056Z,99753.41
2023-12-30T21:42:55.889Z,99740.09
2023-12-30T21:45:25.673Z,99745.22
2023-12-30T21:47:58.091Z,99739.03
2023-12-30T21:50:28.406Z,99733.75
2023-12-30T21:52:58.710Z,99717.16
2023-12-30T21:55:28.499Z,99718.97
2023-12-30T21:57:58.291Z,99713.78
2023-12-30T22:00:28.147Z,99701.44
2023-12-30T22:03:00.660Z,99690.88
2023-12-30T22:05:30.836Z,99690.88
2023-12-30T22:08:00.611Z,99683.97
2023-12-30T22:10:30.566Z,99684.97
2023-12-30T22:13:00.520Z,99674.63
2023-12-30T22:15:30.928Z,99665.94
2023-12-30T22:18:03.442Z,99675.00
2023-12-30T22:20:33.204Z,99674.25
2023-12-30T22:23:03.257Z,99672.47
2023-12-30T22:25:33.225Z,99668.84
2023-12-30T22:28:02.957Z,99664.28
2023-12-30T22:30:32.813Z,99648.47
2023-12-30T22:33:05.437Z,99641.31
2023-12-30T22:35:35.337Z,99637.78
2023-12-30T22:38:05.173Z,99644.75
2023-12-30T22:40:36.571Z,99643.06
2023-12-30T22:43:07.005Z,99639.50
2023-12-30T22:45:38.232Z,99634.22
2023-12-30T22:48:11.910Z,99626.31
2023-12-30T22:50:42.177Z,99623.66
2023-12-30T22:53:11.916Z,99618.41
2023-12-30T22:55:41.722Z,99615.69
2023-12-30T22:58:11.712Z,99612.97
2023-12-30T23:00:41.510Z,99608.53
2023-12-30T23:03:15.402Z,99606.78
2023-12-30T23:05:45.206Z,99613.69
2023-12-30T23:08:14.987Z,99605.69
2023-12-30T23:10:45.342Z,99597.63
2023-12-30T23:13:15.789Z,99588.00
2023-12-30T23:15:46.811Z,99582.13
2023-12-30T23:18:19.540Z,99570.19
2023-12-30T23:20:49.382Z,99564.34
2023-12-30T23:23:19.133Z,99553.31
2023-12-30T23:25:49.078Z,99546.47
2023-12-30T23:28:18.905Z,99540.28
2023-12-30T23:30:48.668Z,99535.72
2023-12-30T23:33:21.238Z,99538.13
2023-12-30T23:35:51.099Z,99531.03
2023-12-30T23:38:20.846Z,99525.75
2023-12-30T23:40:50.765Z,99524.03
2023-12-30T23:43:20.581Z,99520.59
2023-12-30T23:45:50.613Z,99521.53
2023-12-30T23:48:23.254Z,99518.13
2023-12-30T23:50:53.182Z,99510.19
2023-12-30T23:53:22.991Z,99510.19
2023-12-30T23:55:53.286Z,99500.66
2023-12-30T23:58:23.133Z,99497.28
